KSVC/SVC METAR and TAF weather

Enter ICAO airport designator
Station Type Date Time Source
KSVC METAR 2019/04/25 07:55 UTC NOAA

KSVC 250755Z AUTO 33009KT 10SM CLR 09/04 A3008 RMK AO2 T00880040


Station Type Date Time Source
KSVC Decoded METAR 2019/04/25 07:55 UTC NOAA

Silver City / Grant, NM, United States (KSVC) 32-38N 108-09W
Apr 25, 2019 - 03:55 AM EDT / 2019.04.25 0755 UTC
Wind: from the NNW (330 degrees) at 10 MPH (9 KT):0
Visibility: 10 mile(s):0
Sky conditions: clear
Temperature: 47.8 F (8.8 C)
Dew Point: 39.2 F (4.0 C)
Relative Humidity: 71%
Pressure (altimeter): 30.08 in. Hg (1018 hPa)
ob: KSVC 250755Z AUTO 33009KT 10SM CLR 09/04 A3008 RMK AO2 T00880040
cycle: 8

Station Type Date Time Source
KSVC TAF UTC NOAA

Error!

Example: see airport list